createdAt,value
2022-08-21T00:02:17.185Z,11.07
2022-08-21T00:04:48.263Z,10.48
2022-08-21T00:07:24.159Z,11.23
2022-08-21T00:09:52.576Z,11.57
2022-08-21T00:12:19.713Z,11.10
2022-08-21T00:14:46.635Z,10.82
2022-08-21T00:17:13.509Z,11.43
2022-08-21T00:19:40.809Z,10.73
2022-08-21T00:22:07.356Z,11.60
2022-08-21T00:24:33.868Z,10.80
2022-08-21T00:27:00.489Z,11.73
2022-08-21T00:29:26.995Z,12.27
2022-08-21T00:31:54.364Z,11.65
2022-08-21T00:34:21.046Z,10.98
2022-08-21T00:36:47.796Z,10.15
2022-08-21T00:39:14.328Z,10.80
2022-08-21T00:41:41.604Z,11.10
2022-08-21T00:44:11.512Z,11.10
2022-08-21T00:46:39.243Z,10.13
2022-08-21T00:49:08.441Z,10.60
2022-08-21T00:51:47.823Z,10.98
2022-08-21T00:54:19.105Z,10.73
2022-08-21T00:56:49.165Z,10.57
2022-08-21T00:59:18.803Z,9.63
2022-08-21T01:01:45.935Z,9.88
2022-08-21T01:04:13.208Z,9.98
2022-08-21T01:06:39.817Z,10.27
2022-08-21T01:09:06.339Z,10.68
2022-08-21T01:11:33.010Z,9.82
2022-08-21T01:13:59.800Z,10.07
2022-08-21T01:16:26.662Z,9.20
2022-08-21T01:18:53.357Z,10.85
2022-08-21T01:21:23.419Z,10.18
2022-08-21T01:23:57.133Z,9.13
2022-08-21T01:26:33.619Z,9.60
2022-08-21T01:29:03.663Z,9.90
2022-08-21T01:31:32.524Z,8.65
2022-08-21T01:33:59.098Z,9.32
2022-08-21T01:36:27.047Z,7.90
2022-08-21T01:38:53.726Z,8.57
2022-08-21T01:41:20.329Z,8.45
2022-08-21T01:43:46.890Z,7.88
2022-08-21T01:46:14.124Z,8.52
2022-08-21T01:48:42.539Z,8.15
2022-08-21T01:51:09.882Z,7.38
2022-08-21T01:53:37.723Z,7.68
2022-08-21T01:56:12.578Z,7.63
2022-08-21T01:58:41.521Z,7.87
2022-08-21T02:01:08.813Z,7.38
2022-08-21T02:03:36.394Z,7.82
2022-08-21T02:06:05.148Z,7.03
2022-08-21T02:08:32.255Z,7.75
2022-08-21T02:11:01.705Z,7.00
2022-08-21T02:13:28.237Z,6.82
2022-08-21T02:15:55.015Z,7.30
2022-08-21T02:18:21.550Z,6.30
2022-08-21T02:20:56.145Z,6.63
2022-08-21T02:23:27.352Z,6.00
2022-08-21T02:26:05.697Z,5.55
2022-08-21T02:28:32.635Z,4.97
2022-08-21T02:30:59.798Z,5.00
2022-08-21T02:33:27.970Z,4.57
2022-08-21T02:35:55.795Z,4.32
2022-08-21T02:38:25.714Z,4.25
2022-08-21T02:40:53.824Z,4.47
2022-08-21T02:43:22.541Z,4.47
2022-08-21T02:45:50.065Z,4.18
2022-08-21T02:48:20.332Z,4.30
2022-08-21T02:50:52.630Z,3.90
2022-08-21T02:53:21.321Z,3.95
2022-08-21T02:55:49.662Z,4.00
2022-08-21T02:58:19.346Z,3.75
2022-08-21T03:00:46.114Z,3.47
2022-08-21T03:03:14.317Z,3.63
2022-08-21T03:05:41.773Z,4.00
2022-08-21T03:08:11.284Z,3.50
2022-08-21T03:10:44.126Z,3.65
2022-08-21T03:13:11.424Z,3.60
2022-08-21T03:15:38.083Z,4.10
2022-08-21T03:18:06.073Z,3.90
2022-08-21T03:20:33.623Z,4.03
2022-08-21T03:23:01.672Z,3.80
2022-08-21T03:25:40.101Z,3.90
2022-08-21T03:28:13.393Z,4.47
2022-08-21T03:30:45.731Z,3.85
2022-08-21T03:33:15.253Z,3.92
2022-08-21T03:35:48.511Z,4.30
2022-08-21T03:38:15.559Z,4.07
2022-08-21T03:40:43.521Z,4.13
2022-08-21T03:43:12.406Z,4.30
2022-08-21T03:45:39.721Z,4.70
2022-08-21T03:48:08.573Z,4.85
2022-08-21T03:50:41.219Z,5.03
2022-08-21T03:53:16.937Z,4.88
2022-08-21T03:55:47.756Z,5.20
2022-08-21T03:58:17.664Z,4.90
2022-08-21T04:00:47.159Z,5.15
2022-08-21T04:03:13.846Z,5.20
2022-08-21T04:05:41.284Z,4.82
2022-08-21T04:08:08.419Z,5.55
2022-08-21T04:10:37.822Z,5.38
2022-08-21T04:13:07.723Z,5.32
2022-08-21T04:15:35.378Z,5.68
2022-08-21T04:18:02.170Z,5.22
2022-08-21T04:20:29.038Z,5.72
2022-08-21T04:22:57.035Z,4.93
2022-08-21T04:25:26.359Z,4.88
2022-08-21T04:27:53.356Z,5.22
2022-08-21T04:30:20.674Z,5.15
2022-08-21T04:32:49.724Z,5.18
2022-08-21T04:35:18.376Z,5.72
2022-08-21T04:37:45.109Z,5.47
2022-08-21T04:40:14.356Z,5.80
2022-08-21T04:42:52.722Z,4.88
2022-08-21T04:45:26.586Z,5.18
2022-08-21T04:47:55.413Z,5.28
2022-08-21T04:50:30.174Z,5.20
2022-08-21T04:52:57.191Z,4.85
2022-08-21T04:55:25.401Z,5.03
2022-08-21T04:57:54.505Z,5.40
2022-08-21T05:00:22.928Z,5.70
2022-08-21T05:02:50.083Z,4.82
2022-08-21T05:05:17.138Z,4.45
2022-08-21T05:07:45.619Z,4.95
2022-08-21T05:10:14.849Z,4.57
2022-08-21T05:12:43.552Z,4.18
2022-08-21T05:15:15.337Z,4.10
2022-08-21T05:17:42.590Z,3.95
2022-08-21T05:20:14.530Z,3.83
2022-08-21T05:22:41.214Z,3.53
2022-08-21T05:25:10.620Z,3.25
2022-08-21T05:27:39.560Z,3.80
2022-08-21T05:30:08.773Z,4.30
2022-08-21T05:32:36.303Z,4.20
2022-08-21T05:35:05.657Z,4.32
2022-08-21T05:37:32.293Z,4.35
2022-08-21T05:40:20.256Z,3.40
2022-08-21T05:42:54.226Z,4.50
2022-08-21T05:45:41.834Z,4.20
2022-08-21T05:48:16.418Z,4.03
2022-08-21T05:50:44.060Z,3.72
2022-08-21T05:53:11.307Z,3.90
2022-08-21T05:55:44.836Z,4.38
2022-08-21T05:58:14.744Z,3.90
2022-08-21T06:00:42.633Z,4.05
2022-08-21T06:03:14.938Z,4.45
2022-08-21T06:05:41.446Z,4.00
2022-08-21T06:08:07.991Z,3.95
2022-08-21T06:10:34.816Z,3.47
2022-08-21T06:13:01.638Z,3.80
2022-08-21T06:15:28.205Z,3.80
2022-08-21T06:17:55.302Z,4.38
2022-08-21T06:20:22.441Z,3.85
2022-08-21T06:22:48.968Z,4.40
2022-08-21T06:25:15.622Z,4.47
2022-08-21T06:27:42.236Z,4.13
2022-08-21T06:30:09.430Z,4.50
2022-08-21T06:32:36.686Z,4.43
2022-08-21T06:35:05.084Z,4.60
2022-08-21T06:37:32.353Z,4.25
2022-08-21T06:39:58.879Z,4.60
2022-08-21T06:42:28.196Z,4.35
2022-08-21T06:44:55.272Z,4.50
2022-08-21T06:47:21.816Z,4.22
2022-08-21T06:49:48.319Z,4.40
2022-08-21T06:52:16.089Z,4.70
2022-08-21T06:54:42.668Z,4.93
2022-08-21T06:57:09.690Z,5.10
2022-08-21T06:59:36.186Z,5.40
2022-08-21T07:02:02.988Z,5.50
2022-08-21T07:04:29.595Z,5.35
2022-08-21T07:06:56.189Z,5.68
2022-08-21T07:09:24.833Z,5.40
2022-08-21T07:11:54.704Z,5.70
2022-08-21T07:14:21.515Z,5.45
2022-08-21T07:16:49.253Z,6.50
2022-08-21T07:19:16.053Z,5.72
2022-08-21T07:21:42.736Z,5.68
2022-08-21T07:24:09.981Z,5.35
2022-08-21T07:26:37.208Z,4.97
2022-08-21T07:29:04.294Z,5.43
2022-08-21T07:31:30.937Z,5.50
2022-08-21T07:33:57.985Z,5.20
2022-08-21T07:36:24.895Z,5.93
2022-08-21T07:38:52.696Z,6.13
2022-08-21T07:41:25.614Z,5.90
2022-08-21T07:43:52.764Z,6.00
2022-08-21T07:46:20.569Z,5.40
2022-08-21T07:48:47.472Z,5.20
2022-08-21T07:51:16.156Z,5.28
2022-08-21T07:53:42.794Z,5.68
2022-08-21T07:56:09.807Z,5.75
2022-08-21T07:58:36.457Z,5.30
2022-08-21T08:01:03.316Z,5.47
2022-08-21T08:03:30.022Z,5.50
2022-08-21T08:05:58.926Z,5.10
2022-08-21T08:08:25.976Z,4.80
2022-08-21T08:10:54.458Z,4.63
2022-08-21T08:13:20.975Z,4.25
2022-08-21T08:15:47.574Z,4.80
2022-08-21T08:18:14.831Z,4.88
2022-08-21T08:20:42.155Z,4.95
2022-08-21T08:23:12.359Z,4.88
2022-08-21T08:25:39.043Z,4.93
2022-08-21T08:28:16.358Z,5.07
2022-08-21T08:30:43.542Z,5.07
2022-08-21T08:33:10.642Z,5.07
2022-08-21T08:35:39.150Z,4.80
2022-08-21T08:38:06.639Z,4.78
2022-08-21T08:41:10.957Z,4.10
2022-08-21T08:43:37.592Z,4.90
2022-08-21T08:46:13.292Z,5.13
2022-08-21T08:48:54.721Z,4.60
2022-08-21T08:52:00.575Z,4.75
2022-08-21T08:54:32.698Z,4.00
2022-08-21T08:57:03.683Z,4.47
2022-08-21T08:59:46.048Z,4.57
2022-08-21T09:02:14.778Z,4.15
2022-08-21T09:04:42.563Z,4.07
2022-08-21T09:07:30.575Z,4.10
2022-08-21T09:10:14.076Z,3.75
2022-08-21T09:12:40.573Z,3.95
2022-08-21T09:15:30.446Z,4.07
2022-08-21T09:18:30.460Z,3.90
2022-08-21T09:21:05.648Z,3.58
2022-08-21T09:24:01.388Z,3.70
2022-08-21T09:26:37.165Z,3.17
2022-08-21T09:29:04.560Z,3.17
2022-08-21T09:31:35.049Z,3.30
2022-08-21T09:34:04.854Z,3.58
2022-08-21T09:36:42.267Z,3.13
2022-08-21T09:39:11.156Z,3.88
2022-08-21T09:41:39.351Z,3.60
2022-08-21T09:44:08.032Z,3.28
2022-08-21T09:46:34.959Z,3.67
2022-08-21T09:49:04.391Z,3.30
2022-08-21T09:51:36.473Z,3.80
2022-08-21T09:54:08.891Z,3.78
2022-08-21T09:57:11.053Z,3.70
2022-08-21T09:59:38.888Z,3.40
2022-08-21T10:02:20.404Z,3.40
2022-08-21T10:05:01.663Z,3.17
2022-08-21T10:07:31.703Z,3.42
2022-08-21T10:10:07.787Z,3.10
2022-08-21T10:12:53.875Z,3.20
2022-08-21T10:15:41.041Z,3.38
2022-08-21T10:18:21.394Z,3.22
2022-08-21T10:21:02.057Z,3.63
2022-08-21T10:23:59.274Z,3.28
2022-08-21T10:27:03.105Z,3.50
2022-08-21T10:29:58.396Z,3.50
2022-08-21T10:32:53.702Z,3.38
2022-08-21T10:35:31.472Z,3.47
2022-08-21T10:38:50.356Z,3.55
2022-08-21T10:41:42.887Z,3.60
2022-08-21T10:44:25.085Z,3.55
2022-08-21T10:47:02.805Z,3.53
2022-08-21T10:49:41.531Z,3.45
2022-08-21T10:52:23.035Z,3.50
2022-08-21T10:55:15.087Z,3.42
2022-08-21T10:57:58.417Z,3.60
2022-08-21T11:00:52.320Z,3.30
2022-08-21T11:03:50.247Z,3.30
2022-08-21T11:06:22.349Z,3.45
2022-08-21T11:09:02.706Z,3.33
2022-08-21T11:11:45.025Z,3.50
2022-08-21T11:14:22.766Z,3.85
2022-08-21T11:17:08.245Z,3.70
2022-08-21T11:19:52.520Z,3.47
2022-08-21T11:22:29.652Z,3.53
2022-08-21T11:25:04.136Z,3.60
2022-08-21T11:27:55.710Z,3.20
2022-08-21T11:30:25.022Z,3.20
2022-08-21T11:33:16.462Z,3.60
2022-08-21T11:35:56.183Z,3.22
2022-08-21T11:38:36.547Z,3.38
2022-08-21T11:41:23.245Z,3.20
2022-08-21T11:44:11.491Z,3.55
2022-08-21T11:46:55.784Z,3.70
2022-08-21T11:49:42.312Z,3.28
2022-08-21T11:52:14.468Z,3.58
2022-08-21T11:54:45.886Z,3.55
2022-08-21T11:57:21.264Z,3.40
2022-08-21T12:00:06.055Z,3.33
2022-08-21T12:02:36.336Z,3.42
2022-08-21T12:05:08.740Z,3.65
2022-08-21T12:07:41.783Z,3.42
2022-08-21T12:10:17.558Z,3.42
2022-08-21T12:12:45.747Z,3.35
2022-08-21T12:15:21.459Z,3.58
2022-08-21T12:17:59.398Z,3.10
2022-08-21T12:20:50.085Z,3.47
2022-08-21T12:23:30.317Z,3.65
2022-08-21T12:26:04.872Z,3.83
2022-08-21T12:28:32.022Z,3.67
2022-08-21T12:30:59.095Z,3.33
2022-08-21T12:33:34.921Z,3.35
2022-08-21T12:38:55.130Z,3.58
2022-08-21T12:41:27.652Z,3.40
2022-08-21T12:44:09.150Z,4.10
2022-08-21T12:46:40.661Z,3.90
2022-08-21T12:49:26.874Z,3.92
2022-08-21T12:54:41.770Z,4.22
2022-08-21T12:57:09.853Z,4.10
2022-08-21T12:59:40.882Z,3.88
2022-08-21T13:02:19.706Z,4.25
2022-08-21T13:04:48.339Z,3.80
2022-08-21T13:07:22.593Z,4.43
2022-08-21T13:09:53.588Z,4.30
2022-08-21T13:12:22.511Z,3.50
2022-08-21T13:14:51.914Z,3.58
2022-08-21T13:17:23.589Z,3.40
2022-08-21T13:20:02.177Z,3.50
2022-08-21T13:22:33.133Z,3.85
2022-08-21T13:25:01.570Z,3.53
2022-08-21T13:27:33.505Z,4.13
2022-08-21T13:30:18.411Z,3.42
2022-08-21T13:32:51.203Z,3.60
2022-08-21T13:35:26.681Z,3.78
2022-08-21T13:37:55.645Z,3.58
2022-08-21T13:40:53.816Z,3.70
2022-08-21T13:43:28.012Z,3.50
2022-08-21T13:45:57.920Z,3.60
2022-08-21T13:48:29.084Z,3.65
2022-08-21T13:50:56.192Z,3.70
2022-08-21T13:53:32.420Z,3.40
2022-08-21T13:56:01.183Z,3.60
2022-08-21T13:58:34.579Z,3.70
2022-08-21T14:01:04.893Z,3.80
2022-08-21T14:03:48.462Z,3.63
2022-08-21T14:06:22.199Z,3.60
2022-08-21T14:09:00.483Z,3.60
2022-08-21T14:11:30.135Z,3.78
2022-08-21T14:14:04.956Z,3.40
2022-08-21T14:17:24.470Z,3.50
2022-08-21T14:19:53.472Z,3.90
2022-08-21T14:22:45.974Z,3.97
2022-08-21T14:25:27.408Z,3.83
2022-08-21T14:28:00.038Z,3.97
2022-08-21T14:30:34.407Z,3.92
2022-08-21T14:33:02.925Z,3.65
2022-08-21T14:35:29.519Z,3.83
2022-08-21T14:37:57.507Z,3.80
2022-08-21T14:40:26.103Z,3.85
2022-08-21T14:42:52.997Z,4.03
2022-08-21T14:45:30.372Z,3.90
2022-08-21T14:47:58.234Z,3.97
2022-08-21T14:50:28.276Z,4.00
2022-08-21T14:52:55.423Z,3.67
2022-08-21T14:55:22.117Z,3.97
2022-08-21T14:57:52.095Z,3.55
2022-08-21T15:00:35.476Z,3.90
2022-08-21T15:03:03.104Z,3.85
2022-08-21T15:05:32.978Z,3.60
2022-08-21T15:08:00.674Z,3.50
2022-08-21T15:10:27.273Z,3.72
2022-08-21T15:12:53.954Z,3.70
2022-08-21T15:18:11.146Z,4.28
2022-08-21T15:20:38.531Z,4.32
2022-08-21T15:23:08.888Z,4.40
2022-08-21T15:25:37.933Z,4.25
2022-08-21T15:28:05.071Z,4.50
2022-08-21T15:30:32.891Z,4.40
2022-08-21T15:33:00.864Z,4.57
2022-08-21T15:35:27.441Z,4.57
2022-08-21T15:37:53.991Z,4.38
2022-08-21T15:40:20.892Z,4.47
2022-08-21T15:42:47.669Z,4.28
2022-08-21T15:45:15.089Z,4.30
2022-08-21T15:47:45.743Z,4.22
2022-08-21T15:50:13.389Z,4.40
2022-08-21T15:52:40.079Z,4.15
2022-08-21T15:55:07.565Z,4.32
2022-08-21T15:57:35.605Z,4.28
2022-08-21T16:00:14.006Z,4.40
2022-08-21T16:02:44.853Z,4.38
2022-08-21T16:05:13.026Z,4.38
2022-08-21T16:07:40.561Z,4.63
2022-08-21T16:10:09.100Z,4.57
2022-08-21T16:12:42.416Z,4.82
2022-08-21T16:15:17.827Z,4.53
2022-08-21T16:17:49.846Z,4.35
2022-08-21T16:20:21.061Z,4.40
2022-08-21T16:22:47.695Z,4.18
2022-08-21T16:25:15.954Z,4.95
2022-08-21T16:27:48.934Z,5.03
2022-08-21T16:30:16.780Z,4.20
2022-08-21T16:32:44.666Z,4.20
2022-08-21T16:35:13.837Z,4.10
2022-08-21T16:37:41.610Z,4.57
2022-08-21T16:40:10.630Z,4.35
2022-08-21T16:42:39.106Z,4.35
2022-08-21T16:45:11.762Z,3.97
2022-08-21T16:47:38.381Z,4.47
2022-08-21T16:50:07.590Z,4.30
2022-08-21T16:52:35.609Z,4.07
2022-08-21T16:55:02.265Z,3.90
2022-08-21T16:57:28.987Z,3.50
2022-08-21T16:59:55.547Z,3.58
2022-08-21T17:02:35.978Z,3.58
2022-08-21T17:05:03.077Z,3.75
2022-08-21T17:07:34.056Z,3.88
2022-08-21T17:10:04.536Z,3.78
2022-08-21T17:12:31.077Z,3.60
2022-08-21T17:15:08.032Z,3.53
2022-08-21T17:17:35.046Z,3.35
2022-08-21T17:20:01.893Z,3.25
2022-08-21T17:22:28.442Z,3.28
2022-08-21T17:24:55.065Z,3.40
2022-08-21T17:27:26.808Z,3.55
2022-08-21T17:29:55.256Z,3.42
2022-08-21T17:32:21.871Z,2.85
2022-08-21T17:34:48.517Z,2.95
2022-08-21T17:37:15.520Z,3.50
2022-08-21T17:39:42.363Z,3.45
2022-08-21T17:42:12.228Z,3.25
2022-08-21T17:44:40.672Z,2.97
2022-08-21T17:47:08.307Z,3.08
2022-08-21T17:49:35.595Z,3.97
2022-08-21T17:52:02.167Z,3.00
2022-08-21T17:54:28.738Z,3.08
2022-08-21T17:56:56.594Z,3.10
2022-08-21T17:59:24.587Z,3.17
2022-08-21T18:01:51.501Z,2.90
2022-08-21T18:04:18.359Z,3.30
2022-08-21T18:06:45.613Z,3.35
2022-08-21T18:09:12.925Z,2.92
2022-08-21T18:11:42.335Z,2.70
2022-08-21T18:14:12.033Z,3.08
2022-08-21T18:16:38.878Z,3.13
2022-08-21T18:19:10.029Z,3.00
2022-08-21T18:21:36.662Z,2.70
2022-08-21T18:24:04.118Z,3.50
2022-08-21T18:26:34.872Z,3.90
2022-08-21T18:29:02.531Z,3.05
2022-08-21T18:31:31.593Z,2.90
2022-08-21T18:33:58.973Z,3.20
2022-08-21T18:36:27.629Z,3.30
2022-08-21T18:39:08.578Z,3.58
2022-08-21T18:41:44.738Z,3.25
2022-08-21T18:44:13.306Z,3.30
2022-08-21T18:46:39.887Z,3.30
2022-08-21T18:49:07.435Z,3.10
2022-08-21T18:51:33.953Z,2.92
2022-08-21T18:54:00.593Z,3.50
2022-08-21T18:56:27.379Z,3.15
2022-08-21T18:58:58.429Z,3.40
2022-08-21T19:01:25.952Z,3.40
2022-08-21T19:03:52.628Z,3.30
2022-08-21T19:06:19.336Z,3.30
2022-08-21T19:08:45.961Z,3.20
2022-08-21T19:11:12.754Z,3.40
2022-08-21T19:13:41.152Z,3.50
2022-08-21T19:18:55.544Z,4.18
2022-08-21T19:21:24.781Z,3.42
2022-08-21T19:23:53.588Z,3.67
2022-08-21T19:26:23.361Z,3.65
2022-08-21T19:28:53.568Z,3.80
2022-08-21T19:31:26.558Z,3.60
2022-08-21T19:34:01.929Z,3.40
2022-08-21T19:36:30.068Z,3.50
2022-08-21T19:38:57.521Z,3.97
2022-08-21T19:41:27.609Z,3.65
2022-08-21T19:43:56.915Z,4.07
2022-08-21T19:46:29.529Z,4.30
2022-08-21T19:48:57.304Z,3.80
2022-08-21T19:51:25.192Z,3.85
2022-08-21T19:53:57.248Z,3.70
2022-08-21T19:56:27.888Z,3.70
2022-08-21T19:58:55.515Z,4.15
2022-08-21T20:01:24.282Z,3.83
2022-08-21T20:03:54.290Z,4.00
2022-08-21T20:06:24.005Z,3.92
2022-08-21T20:08:52.067Z,4.18
2022-08-21T20:11:26.163Z,3.85
2022-08-21T20:13:53.613Z,4.43
2022-08-21T20:16:21.612Z,4.00
2022-08-21T20:18:49.023Z,3.83
2022-08-21T20:21:15.881Z,4.00
2022-08-21T20:23:43.130Z,3.92
2022-08-21T20:26:16.582Z,3.92
2022-08-21T20:28:43.255Z,4.43
2022-08-21T20:31:10.498Z,4.47
2022-08-21T20:33:37.952Z,4.25
2022-08-21T20:36:04.743Z,4.40
2022-08-21T20:38:31.790Z,4.38
2022-08-21T20:40:58.830Z,3.92
2022-08-21T20:43:26.904Z,4.35
2022-08-21T20:45:55.620Z,4.15
2022-08-21T20:48:27.865Z,3.95
2022-08-21T20:51:02.820Z,3.88
2022-08-21T20:53:43.180Z,4.37
2022-08-21T20:56:49.565Z,4.30
2022-08-21T20:59:18.781Z,3.78
2022-08-21T21:01:49.049Z,4.30
2022-08-21T21:04:37.300Z,4.20
2022-08-21T21:07:09.029Z,4.72
2022-08-21T21:09:42.563Z,4.25
2022-08-21T21:12:16.469Z,4.35
2022-08-21T21:14:52.638Z,4.35
2022-08-21T21:17:43.135Z,4.43
2022-08-21T21:20:48.858Z,4.75
2022-08-21T21:23:51.841Z,4.63
2022-08-21T21:26:29.227Z,4.65
2022-08-21T21:29:32.736Z,4.60
2022-08-21T21:31:59.651Z,4.50
2022-08-21T21:34:32.926Z,4.65
2022-08-21T21:37:02.303Z,5.15
2022-08-21T21:39:53.392Z,4.53
2022-08-21T21:42:31.898Z,4.53
2022-08-21T21:45:16.488Z,4.57
2022-08-21T21:48:09.119Z,4.45
2022-08-21T21:51:00.656Z,4.68
2022-08-21T21:53:42.919Z,4.60
2022-08-21T21:56:20.681Z,4.55
2022-08-21T21:59:08.318Z,4.65
2022-08-21T22:01:49.392Z,4.75
2022-08-21T22:04:22.472Z,4.88
2022-08-21T22:07:11.722Z,4.75
2022-08-21T22:09:46.047Z,4.53
2022-08-21T22:12:34.230Z,4.78
2022-08-21T22:15:26.463Z,4.78
2022-08-21T22:18:17.319Z,4.90
2022-08-21T22:21:10.697Z,4.40
2022-08-21T22:23:47.650Z,4.93
2022-08-21T22:26:20.897Z,4.45
2022-08-21T22:28:50.783Z,5.85
2022-08-21T22:31:29.468Z,4.80
2022-08-21T22:34:00.853Z,5.35
2022-08-21T22:36:32.438Z,5.25
2022-08-21T22:39:00.342Z,5.55
2022-08-21T22:41:31.061Z,5.25
2022-08-21T22:44:01.920Z,5.22
2022-08-21T22:46:56.158Z,5.28
2022-08-21T22:49:34.025Z,5.53
2022-08-21T22:52:33.202Z,5.68
2022-08-21T22:55:52.525Z,5.57
2022-08-21T22:58:22.776Z,5.63
2022-08-21T23:00:49.907Z,5.72
2022-08-21T23:03:22.167Z,5.90
2022-08-21T23:05:49.727Z,6.18
2022-08-21T23:08:35.900Z,6.22
2022-08-21T23:11:12.698Z,6.07
2022-08-21T23:13:44.302Z,5.75
2022-08-21T23:16:23.654Z,6.05
2022-08-21T23:19:00.933Z,6.30
2022-08-21T23:27:52.419Z,6.13
2022-08-21T23:30:29.160Z,5.88
2022-08-21T23:33:23.794Z,5.78
2022-08-21T23:36:30.305Z,5.75
2022-08-21T23:39:24.740Z,5.20
2022-08-21T23:42:17.624Z,5.40
2022-08-21T23:48:21.526Z,5.40
2022-08-21T23:51:11.817Z,5.57
2022-08-21T23:54:02.327Z,5.63
2022-08-21T23:56:34.969Z,5.50
2022-08-21T23:59:10.552Z,5.45
